Terminal Aerodrome Forecast
Issued by NWS

Home | Current Version | Previous Version | Text Only | Print | Product List | Glossary Off
Versions: 1 2 3 4 5 6 7 8 9 10 11 12 13 14 15 16 17 18 19

387
FTUS43 KMPX 212335
TAFRWF
TAF
KRWF 212335Z 2200/2224 05005KT P6SM VCSH SCT030 BKN050 BKN110
     FM220300 04003KT P6SM SCT250
     FM221200 09005KT P6SM SCT250=

USA.gov is the U.S. government's official web portal to all federal, state and local government web resources and services.